Aviation Digital Data Service (ADDS)

Output produced by METARs form (1503 UTC 16 February 2019)
found at http://aviationweather.gov/metar/data/
 
KTUS 161128Z 1612/1712 32007KT P6SM BKN040 BKN200 
     FM162000 30014G21KT P6SM BKN060 
     FM170200 25006KT P6SM FEW080 SCT200 
     FM170700 14007KT P6SM SKC